Latest Weather Observations for Ben Nevis

IDV60801

Issued at 10:32 pm EST Sunday 24 July 2016 (issued every 30 minutes, with the page automatically refreshed every 10 minutes)

About weather observations | Map of weather stations | Latest weather observations for VIC | Other Formats
Station Details ID: 079101 Name: BEN NEVIS Lat: -37.23 Lon: 143.20 Height: 875.0 m
Data from the previous 72 hours. | See also: Recent months at Ben Nevis
Date/Time
EST
Temp
°C
App
Temp
°C
Dew
Point
°C
Rel
Hum
%
Delta-T
°C
Wind Press
QNH
hPa
Press
MSL
hPa
Rain since
9am
mm
Dir  Spd
km/h
Gust
km/h
Spd
kts
Gust
kts
24/10:30pm 2.0 -1.8 1.9 99 0.0 NW 11 28 6 15 - - 1.2
24/10:00pm 2.0 -2.5 1.9 99 0.0 NNW 15 30 8 16 - - 1.0
24/09:30pm 2.3 -2.6 2.2 99 0.0 NNW 17 33 9 18 - - 1.0
24/09:00pm 2.3 -2.6 2.2 99 0.0 NNW 17 30 9 16 - - 1.0
24/08:30pm 2.2 -2.7 2.1 99 0.0 NNW 17 28 9 15 - - 1.0
24/08:00pm 2.3 -2.2 2.2 99 0.0 NNW 15 28 8 15 - - 1.0
24/07:30pm 2.3 -2.2 2.2 99 0.0 NNW 15 30 8 16 - - 1.0
24/07:00pm 2.4 -1.7 2.3 99 0.0 NNW 13 30 7 16 - - 1.0
24/06:30pm 2.4 -1.3 2.3 99 0.0 NNE 11 22 6 12 - - 1.0
24/06:00pm 2.6 -2.2 2.5 99 0.0 N 17 32 9 17 - - 1.0
24/05:30pm 2.6 -2.6 2.5 99 0.0 NNW 19 32 10 17 - - 1.0
24/05:00pm 2.8 -2.6 2.5 98 0.1 NNW 20 43 11 23 - - 0.6
24/04:30pm 3.5 -2.5 3.2 98 0.1 N 24 46 13 25 - - 0.2
24/04:00pm 3.6 -2.1 3.0 96 0.3 NNW 22 44 12 24 - - 0.2
24/03:30pm 4.1 -1.8 3.7 97 0.2 N 24 48 13 26 - - 0.2
24/03:00pm 4.0 -1.9 3.9 99 0.0 N 24 39 13 21 - - 0.2
24/02:30pm 3.5 -2.1 3.4 99 0.0 N 22 41 12 22 - - 0.0
24/02:00pm 3.2 -2.5 3.1 99 0.0 N 22 41 12 22 - - 0.0
24/01:30pm 2.8 -2.9 2.7 99 0.0 N 22 41 12 22 - - 0.0
24/01:00pm 2.8 -2.6 2.7 99 0.0 N 20 35 11 19 - - 0.0
24/12:30pm 2.6 -2.6 2.5 99 0.0 N 19 32 10 17 - - 0.0
24/12:00pm 2.8 -2.9 2.7 99 0.0 N 22 41 12 22 - - 0.0
24/11:30am 2.8 -2.6 2.7 99 0.0 N 20 46 11 25 - - 0.0
24/11:00am 2.7 -3.4 2.6 99 0.0 N 24 39 13 21 - - 0.0
24/10:30am 1.8 -4.1 1.7 99 0.0 N 22 44 12 24 - - 0.0
24/10:00am 2.1 -3.8 2.0 99 0.0 N 22 35 12 19 - - 0.0
24/09:30am 1.4 -4.0 1.3 99 0.0 N 19 33 10 18 - - 0.0
24/09:00am 1.3 -4.1 1.2 99 0.0 N 19 32 10 17 - - 0.2
24/08:30am 1.0 -3.7 0.9 99 0.0 NNW 15 26 8 14 - - 0.2
24/08:00am 1.1 -4.0 1.0 99 0.0 N 17 28 9 15 - - 0.2
24/07:30am 1.0 -4.1 0.9 99 0.0 N 17 30 9 16 - - 0.2
24/07:00am 0.9 -4.2 0.8 99 0.0 N 17 30 9 16 - - 0.2
24/06:30am 1.1 -4.3 1.0 99 0.0 N 19 32 10 17 - - 0.2
24/06:00am 1.0 -3.7 0.9 99 0.0 N 15 28 8 15 - - 0.0
24/05:30am 0.9 -3.8 0.8 99 0.0 NNW 15 28 8 15 - - 0.0
24/05:00am 1.0 -3.7 0.9 99 0.0 NNW 15 28 8 15 - - 0.0
24/04:30am 1.0 -2.9 0.9 99 0.0 NNW 11 20 6 11 - - 0.0
24/04:00am 1.0 -3.3 0.9 99 0.0 NNW 13 22 7 12 - - 0.0
24/03:30am 1.1 -2.4 1.0 99 0.0 NNW 9 22 5 12 - - 0.0
24/03:00am 0.9 -2.7 0.8 99 0.0 NNW 9 26 5 14 - - 0.0
24/02:30am 0.9 -2.7 0.8 99 0.0 NNW 9 15 5 8 - - 0.0
24/02:00am 1.0 -2.6 0.9 99 0.0 NNW 9 19 5 10 - - 0.0
24/01:30am 0.9 -2.3 0.8 99 0.0 NW 7 17 4 9 - - 0.0
24/01:00am 0.8 -2.4 0.7 99 0.0 NNW 7 17 4 9 - - 0.0
24/12:30am 0.8 -2.8 0.7 99 0.0 WNW 9 19 5 10 - - 0.0
24/12:00am 0.7 -2.9 0.6 99 0.0 NW 9 17 5 9 - - 0.0
 
Date/Time
EST
Temp
°C
App
Temp
°C
Dew
Point
°C
Rel
Hum
%
Delta-T
°C
Wind Press
QNH
hPa
Press
MSL
hPa
Rain since
9am
mm
Dir  Spd
km/h
Gust
km/h
Spd
kts
Gust
kts
23/11:30pm 0.8 -2.8 0.7 99 0.0 NW 9 15 5 8 - - 0.0
23/11:00pm 0.7 -2.9 0.6 99 0.0 WNW 9 17 5 9 - - 0.0
23/10:30pm 0.3 -3.4 0.0 98 0.1 W 9 15 5 8 - - 0.0
23/10:00pm 0.4 -3.3 0.0 97 0.2 WNW 9 20 5 11 - - 0.0
23/09:30pm 0.5 -4.0 -0.1 96 0.2 W 13 19 7 10 - - 0.0
23/09:00pm 0.6 -3.9 -0.3 94 0.3 W 13 20 7 11 - - 0.0
23/08:30pm 1.0 -3.9 -0.5 90 0.6 W 15 22 8 12 - - 0.0
23/08:00pm 1.2 -4.5 -0.6 88 0.7 WSW 19 24 10 13 - - 0.0
23/07:30pm 1.7 -3.1 -0.1 88 0.7 W 15 26 8 14 - - 0.0
23/07:00pm 1.7 -4.2 -0.5 85 0.8 WSW 20 28 11 15 - - 0.0
23/06:30pm 1.5 -4.8 -0.9 84 0.9 WSW 22 33 12 18 - - 0.0
23/06:00pm 1.9 -5.1 -0.5 84 0.9 WSW 26 39 14 21 - - 0.0
23/05:30pm 1.8 -4.9 -0.8 83 1.0 WSW 24 33 13 18 - - 0.0
23/05:00pm 2.6 -3.9 0.0 83 1.0 WSW 24 37 13 20 - - 0.0
23/04:30pm 2.8 -4.2 -0.5 79 1.3 WSW 26 43 14 23 - - 0.0
23/04:00pm 3.0 -4.4 -0.6 77 1.4 WSW 28 46 15 25 - - 0.0
23/03:52pm 3.1 -4.3 -0.4 78 1.4 WSW 28 46 15 25 - - 0.0
23/03:30pm 2.6 -5.4 0.5 86 0.8 WSW 32 48 17 26 - - 0.0
23/03:14pm 3.0 -4.5 1.4 89 0.7 WSW 30 50 16 27 - - 0.0
23/03:00pm 3.2 -4.1 0.1 80 1.2 WSW 28 43 15 23 - - 0.0
23/02:30pm 3.7 -3.4 -1.3 70 1.9 WSW 26 41 14 22 - - 0.0
23/02:00pm 5.0 -2.7 -0.4 68 2.2 W 30 46 16 25 - - 0.0
23/01:31pm 4.8 -2.9 -0.4 69 2.1 W 30 48 16 26 - - 0.0
23/01:30pm 4.8 -2.9 -0.2 70 2.0 WSW 30 46 16 25 - - 0.0
23/01:00pm 4.2 -3.9 -0.2 73 1.8 WSW 32 50 17 27 - - 0.0
23/12:30pm 3.2 -6.3 -1.0 74 1.6 WSW 39 57 21 31 - - 0.0
23/12:00pm 3.2 -5.1 -0.1 79 1.3 WSW 33 52 18 28 - - 0.0
23/11:30am 2.8 -6.5 0.5 85 0.9 WSW 39 59 21 32 - - 0.0
23/11:05am 2.2 -5.8 1.5 95 0.3 WSW 33 56 18 30 - - 0.0
23/11:00am 1.8 -6.1 1.2 96 0.2 WSW 32 46 17 25 - - 0.0
23/10:30am 1.1 -6.1 1.0 99 0.0 WSW 28 56 15 30 - - 0.0
23/10:00am 0.7 -6.5 0.6 99 0.0 WSW 28 46 15 25 - - 0.0
23/09:32am 0.2 -7.1 0.1 99 0.0 WSW 28 46 15 25 - - 0.0
23/09:30am 0.3 -6.6 0.2 99 0.0 WSW 26 46 14 25 - - 0.0
23/09:00am 0.1 -8.0 0.0 99 0.0 WSW 32 63 17 34 - - 6.2
23/08:31am 0.0 -8.1 -0.1 99 0.0 WSW 32 52 17 28 - - 6.2
23/08:30am 0.0 -7.7 -0.1 99 0.0 WSW 30 46 16 25 - - 6.2
23/08:00am -0.1 -9.1 -0.2 99 0.0 WSW 37 57 20 31 - - 6.2
23/07:30am 0.5 -8.1 0.4 99 0.0 WSW 35 56 19 30 - - 6.2
23/07:00am 0.6 -9.7 0.5 99 0.0 WSW 44 72 24 39 - - 6.2
23/06:30am 0.8 -8.5 0.7 99 0.0 WSW 39 65 21 35 - - 6.2
23/06:00am 1.3 -8.7 1.2 99 0.0 WSW 43 72 23 39 - - 6.0
23/05:30am 1.4 -7.8 1.3 99 0.0 WSW 39 69 21 37 - - 5.6
23/05:00am 1.8 -6.6 1.7 99 0.0 WSW 35 61 19 33 - - 5.0
23/04:30am 1.8 -8.1 1.7 99 0.0 WSW 43 69 23 37 - - 5.0
23/04:00am 1.9 -6.5 1.8 99 0.0 WSW 35 61 19 33 - - 5.0
23/03:54am 1.9 -6.8 1.8 99 0.0 WSW 37 61 20 33 - - 5.0
23/03:30am 2.0 -6.0 1.9 99 0.0 WSW 33 50 18 27 - - 5.0
23/03:00am 2.3 -5.0 2.2 99 0.0 WSW 30 48 16 26 - - 5.0
23/02:38am 2.3 -4.7 2.2 99 0.0 W 28 46 15 25 - - 4.6
23/02:30am 2.2 -5.2 2.1 99 0.0 W 30 43 16 23 - - 4.6
23/02:22am 2.2 -4.8 2.1 99 0.0 W 28 48 15 26 - - 4.6
23/02:00am 2.2 -3.6 2.1 99 0.0 W 22 41 12 22 - - 4.6
23/01:30am 2.7 -2.1 2.6 99 0.0 W 17 32 9 17 - - 4.6
23/01:00am 2.7 -2.1 2.6 99 0.0 WNW 17 33 9 18 - - 4.6
23/12:30am 2.6 -2.2 2.5 99 0.0 W 17 35 9 19 - - 4.4
23/12:00am 2.5 -2.3 2.4 99 0.0 WNW 17 30 9 16 - - 4.4
 
Date/Time
EST
Temp
°C
App
Temp
°C
Dew
Point
°C
Rel
Hum
%
Delta-T
°C
Wind Press
QNH
hPa
Press
MSL
hPa
Rain since
9am
mm
Dir  Spd
km/h
Gust
km/h
Spd
kts
Gust
kts
22/11:30pm 3.0 -2.3 2.9 99 0.0 W 20 37 11 20 - - 4.4
22/11:00pm 3.6 -1.0 3.5 99 0.0 NW 17 28 9 15 - - 4.4
22/10:30pm 3.7 -0.2 3.6 99 0.0 N 13 26 7 14 - - 4.4
22/10:00pm 4.2 -0.3 4.1 99 0.0 NNW 17 33 9 18 - - 4.2
22/09:30pm 4.8 0.4 4.7 99 0.0 NNE 17 35 9 19 - - 4.2
22/09:00pm 5.1 1.1 5.0 99 0.0 N 15 33 8 18 - - 4.2
22/08:30pm 5.2 0.9 5.1 99 0.0 N 17 33 9 18 - - 4.0
22/08:00pm 5.5 2.0 5.4 99 0.0 N 13 26 7 14 - - 3.6
22/07:30pm 5.6 2.1 5.5 99 0.0 N 13 32 7 17 - - 3.6
22/07:00pm 6.1 2.7 6.0 99 0.0 NNW 13 28 7 15 - - 3.6
22/06:30pm 6.4 3.5 6.3 99 0.0 NNW 11 24 6 13 - - 3.4
22/06:00pm 6.7 4.2 6.6 99 0.0 N 9 17 5 9 - - 3.4
22/05:30pm 6.7 3.8 6.6 99 0.0 WNW 11 20 6 11 - - 3.4
22/05:00pm 6.7 4.2 6.6 99 0.0 WNW 9 19 5 10 - - 3.4
22/04:30pm 6.7 4.2 6.6 99 0.0 WNW 9 20 5 11 - - 3.4
22/04:00pm 6.6 4.1 6.5 99 0.0 NW 9 19 5 10 - - 3.2
22/03:30pm 6.7 3.8 6.6 99 0.0 WNW 11 22 6 12 - - 3.2
22/03:00pm 6.8 2.8 6.7 99 0.0 W 17 30 9 16 - - 3.2
22/02:30pm 5.9 0.8 5.8 99 0.0 W 22 39 12 21 - - 3.2
22/02:03pm 5.7 -1.4 5.6 99 0.0 W 32 52 17 28 - - 3.2
22/02:00pm 5.8 -1.3 5.7 99 0.0 W 32 48 17 26 - - 3.2
22/01:40pm 5.8 -0.1 5.7 99 0.0 SSW 26 61 14 33 - - 1.4
22/01:38pm 6.6 2.0 6.5 99 0.0 ESE 20 61 11 33 - - 0.6
22/01:37pm 7.1 2.8 7.0 99 0.0 E 19 61 10 33 - - 0.2
22/01:30pm 7.8 4.0 7.7 99 0.0 NNE 17 33 9 18 - - 0.2
22/01:00pm 7.9 3.8 7.8 99 0.0 NNW 19 37 10 20 - - 0.0
22/12:30pm 7.7 3.9 7.6 99 0.0 NNE 17 46 9 25 - - 0.0
22/12:00pm 7.6 3.4 7.5 99 0.0 NNW 19 35 10 19 - - 0.0
22/11:30am 7.8 4.4 7.7 99 0.0 NE 15 28 8 15 - - 0.0
22/11:00am 7.9 3.8 7.8 99 0.0 N 19 39 10 21 - - 0.0
22/10:30am 8.0 4.3 7.9 99 0.0 N 17 43 9 23 - - 0.0
22/10:00am 8.1 4.4 8.0 99 0.1 NNW 17 41 9 22 - - 0.0
22/09:30am 8.2 4.9 8.1 99 0.1 N 15 41 8 22 - - 0.0
22/09:00am 8.1 4.4 8.0 99 0.1 NNW 17 35 9 19 - - 5.8
22/08:30am 8.3 5.0 8.2 99 0.1 N 15 37 8 20 - - 5.6
22/08:00am 8.5 4.9 8.4 99 0.1 N 17 32 9 17 - - 5.2
22/07:30am 8.7 5.2 8.6 99 0.1 NNW 17 32 9 17 - - 5.2
22/07:00am 8.9 5.8 8.8 99 0.1 NNW 15 28 8 15 - - 5.2
22/06:30am 9.1 6.4 9.0 99 0.1 N 13 35 7 19 - - 5.2
22/06:00am 9.5 6.5 9.4 99 0.1 NW 15 26 8 14 - - 5.0
22/05:30am 9.8 6.5 9.7 99 0.1 NW 17 30 9 16 - - 4.8
22/05:00am 10.3 7.5 10.1 99 0.1 NW 15 30 8 16 - - 4.8
22/04:30am 11.6 7.9 11.4 99 0.1 NW 22 44 12 24 - - 4.8
22/04:00am 11.8 6.6 11.6 99 0.1 NNW 30 52 16 28 - - 2.0
22/03:30am 11.7 5.5 11.5 99 0.1 NNW 35 63 19 34 - - 1.0
22/03:00am 11.8 6.2 11.6 99 0.1 N 32 61 17 33 - - 0.2
22/02:30am 11.7 5.5 11.5 99 0.1 N 35 67 19 36 - - 0.2
22/02:00am 11.5 5.6 11.3 99 0.1 N 33 65 18 35 - - 0.0
22/01:30am 11.3 6.0 11.1 99 0.1 N 30 54 16 29 - - 0.0
22/01:00am 11.3 5.4 11.1 99 0.1 N 33 61 18 33 - - 0.0
22/12:30am 11.1 5.3 10.9 99 0.1 N 32 56 17 30 - - 0.0
22/12:00am 10.6 4.5 10.4 99 0.1 N 33 56 18 30 - - 0.0
 
Date/Time
EST
Temp
°C
App
Temp
°C
Dew
Point
°C
Rel
Hum
%
Delta-T
°C
Wind Press
QNH
hPa
Press
MSL
hPa
Rain since
9am
mm
Dir  Spd
km/h
Gust
km/h
Spd
kts
Gust
kts
21/11:30pm 10.5 4.6 10.3 99 0.1 N 32 54 17 29 - - 0.0
21/11:00pm 10.4 4.2 10.2 99 0.1 N 33 56 18 30 - - 0.0

Other Formats:

Comma delimited format used in spreadsheet applications
http://www.bom.gov.au/fwo/IDV60801/IDV60801.94835.axf

JavaScript Object Notation format (JSON) in row-major order
http://www.bom.gov.au/fwo/IDV60801/IDV60801.94835.json